Aparecida do Taboado, Brazil
Current Conditions -  °F | °C
As of 9:00 AM on Sunday 25 Jan 2015 (Local Time) from SBSR Reporting Station
Broken Clouds Broken Clouds  
Wind Chill: 73°   Ceiling: 8000
Heat Index: 73°   Visibility: 6mi
Dew Point: 68°   Wind: 8mph
Humidity: 83%   Direction: 30°NNE
Pressure: 30"   Gusts: NA
Location:  20.09°S, 51.09°W
Report Text: SBSR 251200Z 03007KT 9999 FEW025 SCT040 BKN080 23/20 Q1016
Loading
Personal Weather Stations






























Interactive Weather Map New forecast layout! Learn more

10-Day Weather Forecast

Advertisements
Track Severe Weather on mobile